createdAt,value
2023-01-25T00:01:45.881Z,8.84
2023-01-25T00:04:12.540Z,8.81
2023-01-25T00:06:39.223Z,8.92
2023-01-25T00:09:05.838Z,8.92
2023-01-25T00:11:32.744Z,8.87
2023-01-25T00:13:59.575Z,8.82
2023-01-25T00:16:26.383Z,8.74
2023-01-25T00:18:53.248Z,8.46
2023-01-25T00:21:19.884Z,8.48
2023-01-25T00:23:46.607Z,8.37
2023-01-25T00:26:13.320Z,8.41
2023-01-25T00:28:40.027Z,8.34
2023-01-25T00:31:06.660Z,8.27
2023-01-25T00:33:33.407Z,8.23
2023-01-25T00:36:00.061Z,8.16
2023-01-25T00:38:26.715Z,8.12
2023-01-25T00:40:53.374Z,8.05
2023-01-25T00:43:20.055Z,8.03
2023-01-25T00:45:46.744Z,8.01
2023-01-25T00:48:13.372Z,7.94
2023-01-25T00:50:40.046Z,7.78
2023-01-25T00:53:06.712Z,7.64
2023-01-25T00:55:33.404Z,7.64
2023-01-25T00:58:00.125Z,7.70
2023-01-25T01:00:26.800Z,7.65
2023-01-25T01:02:53.416Z,7.58
2023-01-25T01:05:20.125Z,7.46
2023-01-25T01:07:46.774Z,7.42
2023-01-25T01:10:13.387Z,7.42
2023-01-25T01:12:40.088Z,7.42
2023-01-25T01:15:06.886Z,7.46
2023-01-25T01:17:33.728Z,7.21
2023-01-25T01:20:00.400Z,7.17
2023-01-25T01:22:27.059Z,7.20
2023-01-25T01:24:54.714Z,7.24
2023-01-25T01:27:21.348Z,7.13
2023-01-25T01:29:47.992Z,7.05
2023-01-25T01:32:14.805Z,6.98
2023-01-25T01:34:41.557Z,7.12
2023-01-25T01:37:08.235Z,7.12
2023-01-25T01:39:34.948Z,7.13
2023-01-25T01:42:01.582Z,6.98
2023-01-25T01:44:28.252Z,6.89
2023-01-25T01:46:54.909Z,6.99
2023-01-25T01:49:21.586Z,6.98
2023-01-25T01:51:48.222Z,7.05
2023-01-25T01:54:14.838Z,7.15
2023-01-25T01:56:41.503Z,7.19
2023-01-25T01:59:08.180Z,7.16
2023-01-25T02:01:34.973Z,7.09
2023-01-25T02:09:31.013Z,7.18
2023-01-25T02:11:57.667Z,7.26
2023-01-25T02:14:24.322Z,7.21
2023-01-25T02:16:50.950Z,7.16
2023-01-25T02:19:17.600Z,7.14
2023-01-25T02:21:44.316Z,7.14
2023-01-25T02:24:11.033Z,7.03
2023-01-25T02:26:37.753Z,6.98
2023-01-25T02:29:04.431Z,6.93
2023-01-25T02:31:31.207Z,6.95
2023-01-25T02:33:57.939Z,6.95
2023-01-25T02:36:24.652Z,6.93
2023-01-25T02:38:51.291Z,6.79
2023-01-25T02:41:17.937Z,6.84
2023-01-25T02:43:44.616Z,6.83
2023-01-25T02:46:11.250Z,6.85
2023-01-25T02:48:37.944Z,6.80
2023-01-25T02:51:04.587Z,6.80
2023-01-25T02:53:31.185Z,6.80
2023-01-25T02:55:58.821Z,6.75
2023-01-25T02:58:25.488Z,6.73
2023-01-25T03:00:52.150Z,6.66
2023-01-25T03:03:18.895Z,6.63
2023-01-25T03:05:45.568Z,6.59
2023-01-25T03:08:12.280Z,6.34
2023-01-25T03:10:38.889Z,6.38
2023-01-25T03:13:05.532Z,6.32
2023-01-25T03:15:32.184Z,6.28
2023-01-25T03:17:58.820Z,6.41
2023-01-25T03:20:25.470Z,6.59
2023-01-25T03:22:52.093Z,6.59
2023-01-25T03:25:18.687Z,6.61
2023-01-25T03:27:45.275Z,6.63
2023-01-25T03:30:11.973Z,6.65
2023-01-25T03:32:38.617Z,6.70
2023-01-25T03:35:05.287Z,6.75
2023-01-25T03:37:31.963Z,6.76
2023-01-25T03:39:58.653Z,6.75
2023-01-25T03:42:25.302Z,6.67
2023-01-25T03:44:51.941Z,6.58
2023-01-25T03:47:18.613Z,6.52
2023-01-25T03:49:45.269Z,6.56
2023-01-25T03:52:11.933Z,6.61
2023-01-25T03:54:38.655Z,6.74
2023-01-25T03:57:05.375Z,6.74
2023-01-25T03:59:32.059Z,6.77
2023-01-25T04:01:58.723Z,6.81
2023-01-25T04:04:25.438Z,6.81
2023-01-25T04:06:52.095Z,6.82
2023-01-25T04:09:18.761Z,6.76
2023-01-25T04:11:45.432Z,6.72
2023-01-25T04:14:12.075Z,6.78
2023-01-25T04:16:38.739Z,6.75
2023-01-25T04:19:05.428Z,6.72
2023-01-25T04:21:32.128Z,6.66
2023-01-25T04:23:58.854Z,6.67
2023-01-25T04:26:25.522Z,6.62
2023-01-25T04:28:52.181Z,6.64
2023-01-25T04:31:18.981Z,6.51
2023-01-25T04:33:45.698Z,6.51
2023-01-25T04:36:12.535Z,6.50
2023-01-25T04:38:39.268Z,6.46
2023-01-25T04:41:05.933Z,6.42
2023-01-25T04:43:32.676Z,6.39
2023-01-25T04:45:59.416Z,6.51
2023-01-25T04:48:26.119Z,6.43
2023-01-25T04:50:52.759Z,6.38
2023-01-25T04:53:19.404Z,6.37
2023-01-25T04:55:46.056Z,6.11
2023-01-25T04:58:12.695Z,5.97
2023-01-25T05:00:39.355Z,6.12
2023-01-25T05:03:06.160Z,6.24
2023-01-25T05:05:32.809Z,6.21
2023-01-25T05:07:59.516Z,6.19
2023-01-25T05:10:26.225Z,6.38
2023-01-25T05:12:52.933Z,6.54
2023-01-25T05:15:19.560Z,6.29
2023-01-25T05:17:46.268Z,6.39
2023-01-25T05:20:12.929Z,6.33
2023-01-25T05:22:39.613Z,6.34
2023-01-25T05:25:06.318Z,6.36
2023-01-25T05:27:33.033Z,6.40
2023-01-25T05:29:59.715Z,6.50
2023-01-25T05:32:26.435Z,6.57
2023-01-25T05:34:53.128Z,6.66
2023-01-25T05:37:19.818Z,6.71
2023-01-25T05:39:46.446Z,6.70
2023-01-25T05:42:13.091Z,6.72
2023-01-25T05:44:39.787Z,6.71
2023-01-25T05:47:06.445Z,6.72
2023-01-25T05:49:33.126Z,6.84
2023-01-25T05:51:59.771Z,6.88
2023-01-25T05:54:26.473Z,6.87
2023-01-25T05:56:53.100Z,6.86
2023-01-25T05:59:19.737Z,6.90
2023-01-25T06:01:46.432Z,6.88
2023-01-25T06:04:13.160Z,6.85
2023-01-25T06:06:39.860Z,6.85
2023-01-25T06:09:06.497Z,6.98
2023-01-25T06:11:33.194Z,6.92
2023-01-25T06:13:59.802Z,6.95
2023-01-25T06:16:26.558Z,6.93
2023-01-25T06:18:53.254Z,6.90
2023-01-25T06:21:19.929Z,6.80
2023-01-25T06:23:46.635Z,6.89
2023-01-25T06:26:13.327Z,6.97
2023-01-25T06:28:40.016Z,7.02
2023-01-25T06:31:06.771Z,7.06
2023-01-25T06:33:33.637Z,7.10
2023-01-25T06:36:00.291Z,7.13
2023-01-25T06:38:27.247Z,7.11
2023-01-25T06:40:53.934Z,7.12
2023-01-25T06:43:20.586Z,7.17
2023-01-25T06:45:47.300Z,7.21
2023-01-25T06:48:13.913Z,7.21
2023-01-25T06:50:40.611Z,7.21
2023-01-25T06:53:07.228Z,7.28
2023-01-25T06:55:33.870Z,7.20
2023-01-25T06:58:00.566Z,7.30
2023-01-25T07:00:27.243Z,7.21
2023-01-25T07:02:53.889Z,7.24
2023-01-25T07:05:20.545Z,7.25
2023-01-25T07:07:47.284Z,7.38
2023-01-25T07:10:13.925Z,7.29
2023-01-25T07:12:40.563Z,7.30
2023-01-25T07:15:07.744Z,7.29
2023-01-25T07:17:34.728Z,7.20
2023-01-25T07:20:01.346Z,7.17
2023-01-25T07:22:27.990Z,7.25
2023-01-25T07:24:54.639Z,7.17
2023-01-25T07:27:21.873Z,7.26
2023-01-25T07:29:48.540Z,7.25
2023-01-25T07:32:15.235Z,7.31
2023-01-25T07:34:41.860Z,7.36
2023-01-25T07:37:08.547Z,7.38
2023-01-25T07:39:35.178Z,7.52
2023-01-25T07:42:01.851Z,7.55
2023-01-25T07:44:28.530Z,7.59
2023-01-25T07:46:55.170Z,7.69
2023-01-25T07:49:21.839Z,7.71
2023-01-25T07:51:48.522Z,7.69
2023-01-25T07:54:15.225Z,7.76
2023-01-25T07:56:41.894Z,7.82
2023-01-25T07:59:08.628Z,7.96
2023-01-25T08:01:35.297Z,8.07
2023-01-25T08:04:02.079Z,8.00
2023-01-25T08:06:28.733Z,7.97
2023-01-25T08:08:55.388Z,7.99
2023-01-25T08:11:22.114Z,8.02
2023-01-25T08:13:48.749Z,8.08
2023-01-25T08:16:15.357Z,8.20
2023-01-25T08:18:42.002Z,8.15
2023-01-25T08:21:08.636Z,8.13
2023-01-25T08:23:35.331Z,8.22
2023-01-25T08:26:01.977Z,8.15
2023-01-25T08:28:28.655Z,8.13
2023-01-25T08:30:57.460Z,7.98
2023-01-25T08:33:24.372Z,7.70
2023-01-25T08:35:51.186Z,7.69
2023-01-25T08:38:17.821Z,7.90
2023-01-25T08:40:44.498Z,7.96
2023-01-25T08:43:11.139Z,8.08
2023-01-25T08:45:37.785Z,8.04
2023-01-25T08:48:04.471Z,7.90
2023-01-25T08:50:31.155Z,7.96
2023-01-25T08:52:57.920Z,8.00
2023-01-25T08:55:24.738Z,8.09
2023-01-25T08:57:51.416Z,8.27
2023-01-25T09:00:18.053Z,8.09
2023-01-25T09:02:44.709Z,8.20
2023-01-25T09:05:11.370Z,8.25
2023-01-25T09:07:38.006Z,8.21
2023-01-25T09:10:04.722Z,8.45
2023-01-25T09:12:31.443Z,8.19
2023-01-25T09:15:00.851Z,8.05
2023-01-25T09:17:29.920Z,8.19
2023-01-25T09:22:40.882Z,8.60
2023-01-25T09:25:07.578Z,8.58
2023-01-25T09:27:34.232Z,8.67
2023-01-25T09:30:03.084Z,8.66
2023-01-25T09:32:30.135Z,8.58
2023-01-25T09:34:57.206Z,8.80
2023-01-25T09:37:24.053Z,8.69
2023-01-25T09:39:50.778Z,8.49
2023-01-25T09:42:18.212Z,8.48
2023-01-25T09:44:45.745Z,8.57
2023-01-25T09:47:12.584Z,8.78
2023-01-25T09:49:39.261Z,8.72
2023-01-25T09:52:06.229Z,8.42
2023-01-25T09:54:42.260Z,8.60
2023-01-25T09:57:13.108Z,8.46
2023-01-25T09:59:39.989Z,8.48
2023-01-25T10:02:07.271Z,8.57
2023-01-25T10:04:34.141Z,8.76
2023-01-25T10:07:01.798Z,8.95
2023-01-25T10:09:28.827Z,8.78
2023-01-25T10:11:55.625Z,8.78
2023-01-25T10:14:22.424Z,8.72
2023-01-25T10:16:49.179Z,8.84
2023-01-25T10:19:16.341Z,8.53
2023-01-25T10:21:43.002Z,8.72
2023-01-25T10:24:09.939Z,8.87
2023-01-25T10:26:37.019Z,9.07
2023-01-25T10:29:03.823Z,9.27
2023-01-25T10:31:30.656Z,9.14
2023-01-25T10:33:57.625Z,9.23
2023-01-25T10:36:24.504Z,9.29
2023-01-25T10:38:51.173Z,9.37
2023-01-25T10:41:17.986Z,9.42
2023-01-25T10:43:45.138Z,9.05
2023-01-25T10:46:11.953Z,8.68
2023-01-25T10:48:38.760Z,8.83
2023-01-25T10:51:05.679Z,8.61
2023-01-25T10:53:32.494Z,8.72
2023-01-25T10:55:59.298Z,9.03
2023-01-25T10:58:26.061Z,9.10
2023-01-25T11:00:52.824Z,9.14
2023-01-25T11:03:19.647Z,9.02
2023-01-25T11:05:47.254Z,9.02
2023-01-25T11:08:13.938Z,8.84
2023-01-25T11:10:40.913Z,9.17
2023-01-25T11:13:07.725Z,9.38
2023-01-25T11:15:34.501Z,9.46
2023-01-25T11:18:01.248Z,9.45
2023-01-25T11:20:27.965Z,9.54
2023-01-25T11:22:54.811Z,9.74
2023-01-25T11:25:21.973Z,9.81
2023-01-25T11:27:48.731Z,9.88
2023-01-25T11:30:15.939Z,9.87
2023-01-25T11:32:42.747Z,9.94
2023-01-25T11:35:09.389Z,9.86
2023-01-25T11:37:36.284Z,9.88
2023-01-25T11:40:03.367Z,9.95
2023-01-25T11:42:30.064Z,9.96
2023-01-25T11:44:56.873Z,9.91
2023-01-25T11:47:23.591Z,10.00
2023-01-25T11:49:50.393Z,10.05
2023-01-25T11:52:17.210Z,9.86
2023-01-25T11:54:43.988Z,9.76
2023-01-25T11:57:10.650Z,9.74
2023-01-25T11:59:38.041Z,9.56
2023-01-25T12:02:04.746Z,9.67
2023-01-25T12:04:31.517Z,9.63
2023-01-25T12:06:58.277Z,9.67
2023-01-25T12:09:25.239Z,9.74
2023-01-25T12:11:52.013Z,9.53
2023-01-25T12:14:18.779Z,9.05
2023-01-25T12:16:45.732Z,9.17
2023-01-25T12:19:12.514Z,9.53
2023-01-25T12:21:39.186Z,9.55
2023-01-25T12:24:08.079Z,9.56
2023-01-25T12:26:34.791Z,9.47
2023-01-25T12:29:01.496Z,9.43
2023-01-25T12:31:28.377Z,9.55
2023-01-25T12:33:55.310Z,9.40
2023-01-25T12:36:22.043Z,9.32
2023-01-25T12:38:48.740Z,9.33
2023-01-25T12:41:15.633Z,9.58
2023-01-25T12:43:42.545Z,9.56
2023-01-25T12:46:09.289Z,9.28
2023-01-25T12:48:36.143Z,9.27
2023-01-25T12:51:02.818Z,9.47
2023-01-25T12:53:29.544Z,9.66
2023-01-25T12:55:56.388Z,9.88
2023-01-25T12:58:32.875Z,9.98
2023-01-25T13:01:04.011Z,9.96
2023-01-25T13:03:31.034Z,9.47
2023-01-25T13:05:57.708Z,9.67
2023-01-25T13:08:31.870Z,9.81
2023-01-25T13:10:59.281Z,9.89
2023-01-25T13:13:26.045Z,9.89
2023-01-25T13:15:52.893Z,9.78
2023-01-25T13:18:19.643Z,9.83
2023-01-25T13:20:46.736Z,9.59
2023-01-25T13:23:13.440Z,9.67
2023-01-25T13:25:40.133Z,9.75
2023-01-25T13:28:07.089Z,9.90
2023-01-25T13:30:34.012Z,10.04
2023-01-25T13:33:00.830Z,10.01
2023-01-25T13:35:27.563Z,9.94
2023-01-25T13:37:54.414Z,10.02
2023-01-25T13:40:21.121Z,10.10
2023-01-25T13:42:47.872Z,10.08
2023-01-25T13:45:14.567Z,10.05
2023-01-25T13:47:41.329Z,10.14
2023-01-25T13:50:08.748Z,10.07
2023-01-25T13:52:35.801Z,9.83
2023-01-25T13:55:02.606Z,9.80
2023-01-25T13:57:29.713Z,9.81
2023-01-25T14:00:02.064Z,9.78
2023-01-25T14:02:32.151Z,9.83
2023-01-25T14:04:59.059Z,9.88
2023-01-25T14:07:25.968Z,9.89
2023-01-25T14:09:52.724Z,9.90
2023-01-25T14:12:19.408Z,9.90
2023-01-25T14:14:46.309Z,9.92
2023-01-25T14:17:13.178Z,9.81
2023-01-25T14:19:39.827Z,9.73
2023-01-25T14:22:06.544Z,9.80
2023-01-25T14:24:33.419Z,9.79
2023-01-25T14:27:00.684Z,9.76
2023-01-25T14:29:34.589Z,9.77
2023-01-25T14:32:01.370Z,9.80
2023-01-25T14:34:28.156Z,9.56
2023-01-25T14:36:54.870Z,9.34
2023-01-25T14:39:21.509Z,9.27
2023-01-25T14:42:00.514Z,9.07
2023-01-25T14:44:28.485Z,8.66
2023-01-25T14:46:55.466Z,8.96
2023-01-25T14:49:22.242Z,8.88
2023-01-25T14:51:49.057Z,8.44
2023-01-25T14:54:15.959Z,8.26
2023-01-25T14:56:42.731Z,8.21
2023-01-25T14:59:10.553Z,8.26
2023-01-25T15:01:37.287Z,8.50
2023-01-25T15:04:04.018Z,8.73
2023-01-25T15:06:30.694Z,8.68
2023-01-25T15:08:58.574Z,8.88
2023-01-25T15:11:25.415Z,9.01
2023-01-25T15:13:52.150Z,8.52
2023-01-25T15:16:18.871Z,7.93
2023-01-25T15:18:46.049Z,7.71
2023-01-25T15:21:12.911Z,7.20
2023-01-25T15:23:39.589Z,7.42
2023-01-25T15:26:06.605Z,7.41
2023-01-25T15:28:33.629Z,7.56
2023-01-25T15:31:00.426Z,7.32
2023-01-25T15:33:27.262Z,7.44
2023-01-25T15:35:53.992Z,7.06
2023-01-25T15:38:20.769Z,7.20
2023-01-25T15:40:47.504Z,7.43
2023-01-25T15:43:14.227Z,7.69
2023-01-25T15:45:41.191Z,7.65
2023-01-25T15:48:07.930Z,7.29
2023-01-25T15:50:35.707Z,7.13
2023-01-25T15:53:02.398Z,7.15
2023-01-25T15:55:29.186Z,7.16
2023-01-25T15:57:55.916Z,7.44
2023-01-25T16:00:22.729Z,7.43
2023-01-25T16:02:49.422Z,7.60
2023-01-25T16:05:16.123Z,7.64
2023-01-25T16:07:42.885Z,7.77
2023-01-25T16:10:09.764Z,8.09
2023-01-25T16:12:36.676Z,7.70
2023-01-25T16:15:03.374Z,7.69
2023-01-25T16:17:30.025Z,7.87
2023-01-25T16:19:56.734Z,7.70
2023-01-25T16:22:23.466Z,7.86
2023-01-25T16:24:50.207Z,7.55
2023-01-25T16:27:16.928Z,7.39
2023-01-25T16:29:43.581Z,7.54
2023-01-25T16:32:10.396Z,7.29
2023-01-25T16:34:37.447Z,7.30
2023-01-25T16:37:04.558Z,7.40
2023-01-25T16:39:31.738Z,7.23
2023-01-25T16:41:58.917Z,7.44
2023-01-25T16:44:25.636Z,6.99
2023-01-25T16:46:52.346Z,7.27
2023-01-25T16:49:19.413Z,7.61
2023-01-25T16:51:46.192Z,7.97
2023-01-25T16:54:12.898Z,7.96
2023-01-25T16:56:39.592Z,8.13
2023-01-25T16:59:06.350Z,8.34
2023-01-25T17:01:33.175Z,8.38
2023-01-25T17:03:59.932Z,8.31
2023-01-25T17:06:26.651Z,8.16
2023-01-25T17:08:53.372Z,8.30
2023-01-25T17:11:20.098Z,8.44
2023-01-25T17:13:46.797Z,8.46
2023-01-25T17:16:13.619Z,8.29
2023-01-25T17:18:40.479Z,8.39
2023-01-25T17:21:07.203Z,8.45
2023-01-25T17:23:34.065Z,7.98
2023-01-25T17:26:00.754Z,7.89
2023-01-25T17:28:27.407Z,7.90
2023-01-25T17:30:54.740Z,7.92
2023-01-25T17:33:21.596Z,7.94
2023-01-25T17:35:48.521Z,8.00
2023-01-25T17:38:15.200Z,7.76
2023-01-25T17:40:41.916Z,7.80
2023-01-25T17:43:08.674Z,7.78
2023-01-25T17:45:36.390Z,7.98
2023-01-25T17:48:03.087Z,7.93
2023-01-25T17:50:29.846Z,7.91
2023-01-25T17:52:56.467Z,8.18
2023-01-25T17:55:23.135Z,8.32
2023-01-25T17:57:49.843Z,8.42
2023-01-25T18:00:16.549Z,8.28
2023-01-25T18:02:43.257Z,8.33
2023-01-25T18:05:09.997Z,8.47
2023-01-25T18:07:36.742Z,8.55
2023-01-25T18:10:03.493Z,8.50
2023-01-25T18:12:30.241Z,8.20
2023-01-25T18:14:56.954Z,8.23
2023-01-25T18:17:23.654Z,8.01
2023-01-25T18:19:50.329Z,8.19
2023-01-25T18:22:17.034Z,8.36
2023-01-25T18:24:43.804Z,8.48
2023-01-25T18:27:10.497Z,8.51
2023-01-25T18:29:37.213Z,8.54
2023-01-25T18:32:03.959Z,8.60
2023-01-25T18:34:30.686Z,8.58
2023-01-25T18:36:57.380Z,8.70
2023-01-25T18:39:24.063Z,8.57
2023-01-25T18:41:50.786Z,8.53
2023-01-25T18:44:17.567Z,8.38
2023-01-25T18:46:44.421Z,8.45
2023-01-25T18:49:11.224Z,8.49
2023-01-25T18:51:58.851Z,8.57
2023-01-25T18:54:24.646Z,8.47
2023-01-25T18:56:51.337Z,8.49
2023-01-25T18:59:18.040Z,8.50
2023-01-25T19:01:44.835Z,8.40
2023-01-25T19:04:11.591Z,8.30
2023-01-25T19:06:38.359Z,8.22
2023-01-25T19:09:05.101Z,8.31
2023-01-25T19:11:31.801Z,8.40
2023-01-25T19:13:58.426Z,8.43
2023-01-25T19:16:25.173Z,8.45
2023-01-25T19:18:51.843Z,8.46
2023-01-25T19:21:18.507Z,8.42
2023-01-25T19:23:45.205Z,8.41
2023-01-25T19:26:11.915Z,8.33
2023-01-25T19:28:38.611Z,8.28
2023-01-25T19:31:05.414Z,8.35
2023-01-25T19:33:32.181Z,8.41
2023-01-25T19:35:58.908Z,8.54
2023-01-25T19:38:25.653Z,8.31
2023-01-25T19:40:52.399Z,8.30
2023-01-25T19:43:19.163Z,8.20
2023-01-25T19:45:45.826Z,8.26
2023-01-25T19:48:12.579Z,8.26
2023-01-25T19:50:39.376Z,8.32
2023-01-25T19:53:05.995Z,8.42
2023-01-25T19:55:32.719Z,8.34
2023-01-25T19:57:59.371Z,8.37
2023-01-25T20:00:26.114Z,8.39
2023-01-25T20:02:52.914Z,8.35
2023-01-25T20:05:19.635Z,8.33
2023-01-25T20:07:46.357Z,8.39
2023-01-25T20:10:13.291Z,8.31
2023-01-25T20:12:39.996Z,8.33
2023-01-25T20:15:06.660Z,8.29
2023-01-25T20:17:33.339Z,8.26
2023-01-25T20:19:59.994Z,8.15
2023-01-25T20:22:26.684Z,8.24
2023-01-25T20:24:53.422Z,8.31
2023-01-25T20:27:20.152Z,8.38
2023-01-25T20:29:46.828Z,8.26
2023-01-25T20:32:30.590Z,8.24
2023-01-25T20:34:58.415Z,8.28
2023-01-25T20:37:25.192Z,8.28
2023-01-25T20:39:51.863Z,8.22
2023-01-25T20:42:18.576Z,8.28
2023-01-25T20:44:45.295Z,8.32
2023-01-25T20:47:11.959Z,8.36
2023-01-25T20:49:38.669Z,8.43
2023-01-25T20:52:05.379Z,8.36
2023-01-25T20:54:32.054Z,8.41
2023-01-25T20:56:58.734Z,8.43
2023-01-25T20:59:25.539Z,8.44
2023-01-25T21:01:52.253Z,8.46
2023-01-25T21:04:18.996Z,8.43
2023-01-25T21:06:45.665Z,8.26
2023-01-25T21:09:12.361Z,8.32
2023-01-25T21:11:39.084Z,8.37
2023-01-25T21:14:05.828Z,8.47
2023-01-25T21:16:32.767Z,8.46
2023-01-25T21:18:59.496Z,8.42
2023-01-25T21:21:26.301Z,8.36
2023-01-25T21:23:53.082Z,8.39
2023-01-25T21:26:19.834Z,8.43
2023-01-25T21:28:46.549Z,8.41
2023-01-25T21:31:13.376Z,8.39
2023-01-25T21:33:40.168Z,8.35
2023-01-25T21:36:06.936Z,8.37
2023-01-25T21:38:33.756Z,8.33
2023-01-25T21:41:00.380Z,8.31
2023-01-25T21:43:27.160Z,8.31
2023-01-25T21:45:53.893Z,8.26
2023-01-25T21:48:20.617Z,8.21
2023-01-25T21:50:47.356Z,8.22
2023-01-25T21:53:14.067Z,8.09
2023-01-25T21:55:40.775Z,8.20
2023-01-25T21:58:07.495Z,8.22
2023-01-25T22:00:34.240Z,8.30
2023-01-25T22:03:00.870Z,8.31
2023-01-25T22:05:27.615Z,8.29
2023-01-25T22:07:54.311Z,8.33
2023-01-25T22:10:21.004Z,8.31
2023-01-25T22:12:47.688Z,8.30
2023-01-25T22:15:14.459Z,8.21
2023-01-25T22:17:41.246Z,8.29
2023-01-25T22:20:08.268Z,8.33
2023-01-25T22:22:35.096Z,8.29
2023-01-25T22:25:01.881Z,8.27
2023-01-25T22:27:28.574Z,8.31
2023-01-25T22:29:55.259Z,8.31
2023-01-25T22:32:21.970Z,8.26
2023-01-25T22:34:48.585Z,8.25
2023-01-25T22:37:15.338Z,8.11
2023-01-25T22:39:42.119Z,7.88
2023-01-25T22:42:08.829Z,8.03
2023-01-25T22:44:35.467Z,7.96
2023-01-25T22:47:02.276Z,7.92
2023-01-25T22:49:28.976Z,7.93
2023-01-25T22:51:55.624Z,7.84
2023-01-25T22:54:22.371Z,7.87
2023-01-25T22:56:49.059Z,7.71
2023-01-25T22:59:15.753Z,7.84
2023-01-25T23:01:42.517Z,8.00
2023-01-25T23:04:09.255Z,7.70
2023-01-25T23:06:35.963Z,7.78
2023-01-25T23:09:02.694Z,7.75
2023-01-25T23:11:29.354Z,7.80
2023-01-25T23:13:56.103Z,7.86
2023-01-25T23:16:22.733Z,7.91
2023-01-25T23:18:49.515Z,7.92
2023-01-25T23:21:16.359Z,7.89
2023-01-25T23:23:43.090Z,8.01
2023-01-25T23:26:09.854Z,7.96
2023-01-25T23:28:37.317Z,8.02
2023-01-25T23:31:04.122Z,8.12
2023-01-25T23:33:30.874Z,8.08
2023-01-25T23:35:57.555Z,7.74
2023-01-25T23:38:24.191Z,7.79
2023-01-25T23:40:51.073Z,7.89
2023-01-25T23:43:17.707Z,7.80
2023-01-25T23:45:44.489Z,7.83
2023-01-25T23:48:11.251Z,7.93
2023-01-25T23:50:37.995Z,7.92
2023-01-25T23:53:04.750Z,7.67
2023-01-25T23:55:31.425Z,7.64
2023-01-25T23:57:58.184Z,7.71
